AIRPORT ID: D07

DATE: 2024-07-20 ZULU TIME: 14.35 LOCAL TIME: 8.35


METAR KD07 201435Z AUTO 00000KT 4SM HZ 24/19 A3013

ALTIMETER: A3013 Q1020

DENSITY ALT: 3900 Ft

WIND DIRECT: 210

WIND SPEED: 0 Gust

WIND CONDITIONS:

VISIBILTY: 4SM 6400M

TEMPERATURE: 75 F 24 C

DEW POINT: 66 F 19 C

HUMID: 73%

LCL: Above 5,000 feet

RADIO CHECK: 0

ADVISARIES: 0

GREETINGS: 0

CONVERSATIONS: 0